Time;durP1;ratioP1;P1;durP2;ratioP2;P2;SDS_P1;SDS_P2;PMS_P1;PMS_P2;Temp;Humidity;BMP_temperature;BMP_pressure;BME280_temperature;BME280_humidity;BME280_pressure;Samples;Min_cycle;Max_cycle;Signal;HPM_P1;HPM_P2
2022/05/17 00:00:24;;;;;;;10.27;3.88;;;18.50;67.30;;;;;;5133345;27;20027;-66
2022/05/17 00:02:50;;;;;;;8.25;3.05;;;18.40;67.30;;;;;;5131966;28;20092;-66
2022/05/17 00:05:15;;;;;;;9.73;3.42;;;18.40;67.30;;;;;;5124881;28;20053;-66
2022/05/17 00:07:41;;;;;;;10.55;3.63;;;18.40;67.40;;;;;;5118805;28;20027;-66
2022/05/17 00:10:07;;;;;;;10.50;3.10;;;18.40;67.50;;;;;;5103459;28;20023;-66
2022/05/17 00:12:33;;;;;;;8.55;3.17;;;18.40;67.50;;;;;;5135595;27;20054;-66
2022/05/17 00:14:59;;;;;;;9.63;3.40;;;18.30;67.60;;;;;;5123224;27;20047;-65
2022/05/17 00:17:25;;;;;;;10.52;3.58;;;18.30;67.70;;;;;;5132358;27;20046;-66
2022/05/17 00:19:50;;;;;;;9.93;3.25;;;18.30;67.70;;;;;;5124785;27;20027;-65
2022/05/17 00:22:16;;;;;;;9.13;3.55;;;18.30;67.70;;;;;;5119191;28;20039;-66
2022/05/17 00:24:42;;;;;;;9.23;4.25;;;18.30;67.80;;;;;;5128763;27;20034;-66
2022/05/17 00:27:08;;;;;;;11.35;4.38;;;18.20;67.80;;;;;;5137687;27;20058;-66
2022/05/17 00:29:34;;;;;;;9.27;3.33;;;18.20;67.90;;;;;;5130964;27;20061;-66
2022/05/17 00:32:00;;;;;;;9.45;3.45;;;18.20;68.00;;;;;;5138484;27;20412;-66
2022/05/17 00:34:27;;;;;;;11.30;3.28;;;18.20;68.10;;;;;;5131185;27;20138;-66
2022/05/17 00:36:53;;;;;;;9.25;3.67;;;18.20;68.10;;;;;;5136026;27;20185;-66
2022/05/17 00:39:19;;;;;;;8.60;3.05;;;18.20;68.20;;;;;;5124853;27;20041;-66
2022/05/17 00:41:45;;;;;;;8.20;3.28;;;18.20;68.30;;;;;;5134086;27;20031;-66
2022/05/17 00:47:04;;;;;;;9.50;3.15;;;18.20;68.40;;;;;;5136966;27;20031;-65
2022/05/17 00:49:42;;;;;;;9.27;3.17;;;18.20;68.50;;;;;;5118918;27;20027;-66
2022/05/17 00:52:16;;;;;;;7.68;3.47;;;18.20;68.50;;;;;;5117203;27;20032;-65
2022/05/17 00:54:42;;;;;;;10.65;3.47;;;18.20;68.60;;;;;;5120577;27;20032;-65
2022/05/17 00:57:34;;;;;;;8.98;3.97;;;18.20;68.60;;;;;;5123417;27;20030;-65
2022/05/17 01:00:08;;;;;;;7.70;3.15;;;18.20;68.60;;;;;;5120620;27;20483;-66
2022/05/17 01:02:33;;;;;;;11.98;3.88;;;18.20;68.70;;;;;;5129084;27;20027;-65
2022/05/17 01:05:01;;;;;;;8.95;3.67;;;18.20;68.70;;;;;;5133521;27;20050;-65
2022/05/17 01:07:33;;;;;;;10.80;3.45;;;18.20;68.80;;;;;;5135746;27;20035;-65
2022/05/17 01:09:59;;;;;;;11.13;4.20;;;18.20;68.80;;;;;;5123418;27;20084;-65
2022/05/17 01:12:25;;;;;;;9.25;3.25;;;18.20;68.80;;;;;;5123353;27;20023;-65
2022/05/17 01:15:00;;;;;;;8.98;3.70;;;18.20;68.90;;;;;;5099458;28;20036;-65
2022/05/17 01:17:34;;;;;;;7.93;3.22;;;18.20;68.90;;;;;;5117257;27;20150;-65
2022/05/17 01:20:03;;;;;;;7.75;3.63;;;18.20;69.00;;;;;;5131227;27;20146;-65
2022/05/17 01:22:29;;;;;;;9.50;3.92;;;18.20;69.00;;;;;;5117789;27;20031;-65
2022/05/17 01:24:55;;;;;;;8.73;3.55;;;18.10;69.00;;;;;;5127879;27;20022;-65
2022/05/17 01:27:42;;;;;;;8.98;3.70;;;18.10;69.00;;;;;;5129609;27;20348;-65
2022/05/17 01:30:16;;;;;;;7.20;3.35;;;18.10;69.10;;;;;;5127774;27;20034;-65
2022/05/17 01:32:41;;;;;;;8.20;3.72;;;18.10;69.20;;;;;;5135905;27;20104;-65
2022/05/17 01:35:08;;;;;;;9.73;4.00;;;18.10;69.20;;;;;;5126938;27;20069;-65
2022/05/17 01:37:34;;;;;;;9.48;3.80;;;18.10;69.20;;;;;;5120826;27;20043;-65
2022/05/17 01:39:59;;;;;;;7.05;3.58;;;18.10;69.20;;;;;;5124476;27;20042;-65
2022/05/17 01:42:25;;;;;;;7.97;3.78;;;18.10;69.30;;;;;;5119284;27;20370;-66
2022/05/17 01:44:51;;;;;;;7.88;3.50;;;18.10;69.30;;;;;;5119200;27;20065;-65
2022/05/17 01:47:17;;;;;;;10.93;4.35;;;18.10;69.30;;;;;;5119059;27;20035;-65
2022/05/17 01:49:42;;;;;;;9.48;3.63;;;18.10;69.40;;;;;;5118492;27;20028;-65
2022/05/17 01:52:09;;;;;;;9.70;3.67;;;18.10;69.40;;;;;;5134330;27;20076;-65
2022/05/17 01:54:34;;;;;;;9.20;3.75;;;18.10;69.40;;;;;;5132780;27;20030;-65
2022/05/17 01:57:00;;;;;;;9.93;4.18;;;18.10;69.50;;;;;;5124935;27;20110;-65
2022/05/17 01:59:26;;;;;;;10.60;4.28;;;18.10;69.50;;;;;;5117605;27;20028;-65
2022/05/17 02:01:51;;;;;;;10.27;3.78;;;18.10;69.50;;;;;;5124523;27;20412;-65
2022/05/17 02:04:17;;;;;;;9.50;4.10;;;18.10;69.50;;;;;;5105996;27;20624;-65
2022/05/17 02:06:42;;;;;;;10.88;4.32;;;18.00;69.50;;;;;;5126936;27;20073;-65
2022/05/17 02:09:08;;;;;;;8.55;3.90;;;18.00;69.50;;;;;;5132178;27;20054;-65
2022/05/17 02:11:34;;;;;;;9.90;4.20;;;18.00;69.60;;;;;;5124467;27;20049;-65
2022/05/17 02:13:59;;;;;;;9.32;4.53;;;18.00;69.70;;;;;;5134137;27;20027;-65
2022/05/17 02:16:25;;;;;;;10.95;4.20;;;18.00;69.70;;;;;;5123097;27;20028;-65
2022/05/17 02:18:51;;;;;;;9.20;4.20;;;18.00;69.70;;;;;;5121477;27;20336;-65
2022/05/17 02:21:17;;;;;;;10.25;4.20;;;18.00;69.70;;;;;;5124011;27;20019;-65
2022/05/17 02:23:43;;;;;;;9.38;4.00;;;18.00;69.80;;;;;;5136365;27;20447;-65
2022/05/17 02:26:09;;;;;;;7.75;4.00;;;18.00;69.90;;;;;;5123157;27;20092;-65
2022/05/17 02:28:35;;;;;;;10.13;4.55;;;18.00;69.90;;;;;;5120536;27;20035;-65
2022/05/17 02:31:01;;;;;;;10.95;6.10;;;18.00;69.90;;;;;;5121749;27;20023;-65
2022/05/17 02:33:27;;;;;;;10.43;6.45;;;18.00;69.90;;;;;;5132200;27;20029;-66
2022/05/17 02:35:53;;;;;;;10.75;6.35;;;18.00;69.90;;;;;;5126673;27;20051;-65
2022/05/17 02:38:18;;;;;;;13.90;9.07;;;18.00;69.90;;;;;;5123178;27;20194;-65
2022/05/17 02:40:44;;;;;;;15.82;9.15;;;18.00;69.90;;;;;;5118156;27;20055;-65
2022/05/17 02:43:13;;;;;;;15.43;9.77;;;18.00;69.90;;;;;;5129029;27;20409;-65
2022/05/17 02:45:39;;;;;;;12.77;8.98;;;18.00;69.90;;;;;;5131639;27;20027;-65
2022/05/17 02:48:05;;;;;;;12.05;6.97;;;18.00;69.90;;;;;;5119514;27;20036;-65
2022/05/17 02:50:32;;;;;;;12.20;7.03;;;18.00;69.90;;;;;;5115407;27;20030;-65
2022/05/17 02:52:57;;;;;;;11.40;6.25;;;18.10;70.00;;;;;;5123740;27;20027;-65
2022/05/17 02:55:24;;;;;;;9.40;5.07;;;18.00;70.00;;;;;;5136289;27;20075;-65
2022/05/17 02:57:49;;;;;;;10.55;5.35;;;18.00;69.90;;;;;;5126439;27;20459;-66
2022/05/17 03:00:16;;;;;;;12.43;5.20;;;18.10;70.00;;;;;;5114990;28;20036;-65
2022/05/17 03:02:42;;;;;;;9.57;4.40;;;18.00;69.90;;;;;;5130678;27;20033;-66
2022/05/17 03:05:09;;;;;;;10.20;4.50;;;18.10;70.00;;;;;;5114342;27;20167;-65
2022/05/17 03:07:35;;;;;;;9.32;4.20;;;18.00;69.90;;;;;;5120824;27;20368;-66
2022/05/17 03:10:01;;;;;;;10.02;4.78;;;18.00;69.90;;;;;;5115660;28;20024;-66
2022/05/17 03:12:26;;;;;;;8.95;4.63;;;18.00;69.90;;;;;;5120744;27;20027;-66
2022/05/17 03:14:52;;;;;;;10.55;4.55;;;18.00;69.90;;;;;;5115756;28;20031;-65
2022/05/17 03:17:18;;;;;;;9.23;4.30;;;18.00;70.00;;;;;;5124341;27;20444;-65
2022/05/17 03:19:44;;;;;;;10.73;4.63;;;18.00;70.00;;;;;;5114078;27;20120;-65
2022/05/17 03:22:10;;;;;;;12.15;4.10;;;17.90;70.00;;;;;;5118511;27;20077;-65
2022/05/17 03:24:36;;;;;;;9.07;4.18;;;17.90;70.00;;;;;;5116841;27;20030;-65
2022/05/17 03:27:02;;;;;;;9.27;4.72;;;17.90;70.10;;;;;;5128786;27;20034;-65
2022/05/17 03:29:28;;;;;;;8.98;4.43;;;17.90;70.20;;;;;;5132939;27;20037;-66
2022/05/17 03:31:54;;;;;;;10.90;4.40;;;17.90;70.20;;;;;;5126953;27;20111;-66
2022/05/17 03:34:20;;;;;;;7.70;3.50;;;17.90;70.20;;;;;;5120626;27;20475;-65
2022/05/17 03:36:46;;;;;;;13.00;4.32;;;17.90;70.20;;;;;;5100010;28;20048;-66
2022/05/17 03:39:11;;;;;;;8.77;4.38;;;17.90;70.30;;;;;;5128476;27;20107;-66
2022/05/17 03:41:37;;;;;;;9.52;4.90;;;17.80;70.30;;;;;;5126074;27;20024;-66
2022/05/17 03:44:04;;;;;;;9.93;5.10;;;17.80;70.30;;;;;;5127353;27;20096;-66
2022/05/17 03:46:30;;;;;;;9.98;4.38;;;17.80;70.40;;;;;;5133399;27;20038;-66
2022/05/17 03:48:55;;;;;;;10.45;4.70;;;17.80;70.40;;;;;;5125574;28;20023;-66
2022/05/17 03:51:21;;;;;;;8.88;4.20;;;17.80;70.40;;;;;;5124036;27;20023;-66
2022/05/17 03:53:50;;;;;;;10.45;4.22;;;17.70;70.40;;;;;;5129505;27;20448;-66
2022/05/17 03:56:16;;;;;;;9.05;4.32;;;17.80;70.50;;;;;;5122050;27;20027;-66
2022/05/17 03:58:43;;;;;;;10.68;4.60;;;17.80;70.50;;;;;;5141133;27;20084;-66
2022/05/17 04:01:10;;;;;;;9.60;4.47;;;17.80;70.60;;;;;;5121291;27;20063;-66
2022/05/17 04:03:37;;;;;;;9.05;4.28;;;17.80;70.60;;;;;;5122576;27;20027;-66
2022/05/17 04:06:03;;;;;;;9.57;5.13;;;17.80;70.60;;;;;;5130027;27;20024;-66
2022/05/17 04:08:30;;;;;;;9.27;4.20;;;17.80;70.60;;;;;;5132090;27;20023;-66
2022/05/17 04:10:56;;;;;;;10.20;4.70;;;17.80;70.60;;;;;;5127066;27;20385;-66
2022/05/17 04:13:22;;;;;;;12.20;5.13;;;17.80;70.60;;;;;;5130904;27;20049;-66
2022/05/17 04:15:47;;;;;;;11.05;5.13;;;17.90;70.70;;;;;;5137722;27;20031;-66
2022/05/17 04:18:13;;;;;;;10.75;5.03;;;17.90;70.60;;;;;;5138668;27;20340;-65
2022/05/17 04:20:38;;;;;;;10.93;5.07;;;17.90;70.60;;;;;;5142005;27;20028;-66
2022/05/17 04:23:04;;;;;;;12.43;5.72;;;17.90;70.60;;;;;;5138997;27;20038;-65
2022/05/17 04:25:30;;;;;;;11.15;4.97;;;17.90;70.60;;;;;;5128961;27;20434;-66
2022/05/17 04:27:56;;;;;;;9.60;5.13;;;17.90;70.60;;;;;;5129319;27;20022;-66
2022/05/17 04:30:24;;;;;;;11.73;4.80;;;18.00;70.70;;;;;;5120152;27;20153;-66
2022/05/17 04:32:50;;;;;;;10.75;5.32;;;18.00;70.80;;;;;;5136428;27;20020;-66
2022/05/17 04:35:16;;;;;;;9.45;4.97;;;18.00;70.70;;;;;;5137675;27;20022;-66
2022/05/17 04:37:42;;;;;;;10.80;4.85;;;18.00;70.80;;;;;;5139193;27;20477;-65
2022/05/17 04:40:10;;;;;;;9.98;5.15;;;18.00;70.90;;;;;;5130737;27;20110;-65
2022/05/17 04:42:37;;;;;;;10.27;5.40;;;18.10;71.00;;;;;;5127973;27;20154;-65
2022/05/17 04:45:06;;;;;;;8.77;4.93;;;18.10;71.00;;;;;;5122393;27;20059;-65
2022/05/17 04:47:31;;;;;;;12.55;5.18;;;18.10;71.00;;;;;;5122624;27;20035;-65
2022/05/17 04:49:57;;;;;;;10.18;5.28;;;18.10;71.10;;;;;;5121416;27;20042;-65
2022/05/17 04:52:23;;;;;;;8.32;4.60;;;18.20;71.10;;;;;;5126213;27;20088;-65
2022/05/17 04:54:49;;;;;;;12.10;5.10;;;18.20;71.20;;;;;;5134276;27;20096;-65
2022/05/17 04:57:15;;;;;;;10.05;5.28;;;18.20;71.20;;;;;;5130287;27;20094;-65
2022/05/17 04:59:41;;;;;;;12.98;5.60;;;18.20;71.20;;;;;;5102762;28;20123;-65
2022/05/17 05:02:07;;;;;;;10.35;5.45;;;18.20;71.30;;;;;;5135686;27;20038;-65
2022/05/17 05:04:33;;;;;;;10.07;5.30;;;18.20;71.30;;;;;;5135054;27;20038;-65
2022/05/17 05:06:59;;;;;;;10.18;4.90;;;18.30;71.30;;;;;;5132231;27;20359;-65
2022/05/17 05:09:24;;;;;;;10.15;5.20;;;18.30;71.40;;;;;;5132205;27;20034;-65
2022/05/17 05:11:50;;;;;;;8.95;4.93;;;18.30;71.40;;;;;;5130082;27;20027;-65
2022/05/17 05:14:16;;;;;;;10.88;5.75;;;18.40;71.40;;;;;;5120905;27;20039;-65
2022/05/17 05:16:42;;;;;;;10.52;5.53;;;18.40;71.50;;;;;;5120824;27;20761;-65
2022/05/17 05:19:07;;;;;;;11.00;4.95;;;18.40;71.50;;;;;;5131476;27;20114;-65
2022/05/17 05:21:34;;;;;;;11.27;4.95;;;18.50;71.50;;;;;;5127751;27;20024;-65
2022/05/17 05:24:01;;;;;;;12.60;5.20;;;18.50;71.50;;;;;;5131003;27;20031;-65
2022/05/17 05:26:26;;;;;;;9.85;5.45;;;18.60;71.40;;;;;;5131909;27;20043;-65
2022/05/17 05:28:52;;;;;;;9.52;5.38;;;18.60;71.30;;;;;;5136467;27;20039;-65
2022/05/17 05:31:18;;;;;;;10.40;5.07;;;18.60;71.20;;;;;;5138703;27;20024;-67
2022/05/17 05:33:43;;;;;;;9.55;5.57;;;18.70;71.20;;;;;;5136995;27;20038;-65
2022/05/17 05:36:10;;;;;;;10.35;5.75;;;18.70;71.00;;;;;;5134575;27;20058;-69
2022/05/17 05:38:35;;;;;;;14.18;5.80;;;18.80;70.70;;;;;;5131932;27;20022;-66
2022/05/17 05:41:02;;;;;;;10.32;5.80;;;18.90;70.60;;;;;;5134760;27;20094;-65
2022/05/17 05:43:27;;;;;;;10.68;5.45;;;18.90;70.30;;;;;;5141609;27;20080;-64
2022/05/17 05:45:53;;;;;;;10.20;5.72;;;19.00;70.20;;;;;;5126265;27;20031;-65
2022/05/17 05:48:19;;;;;;;11.18;5.53;;;19.00;69.90;;;;;;5126983;27;20110;-65
2022/05/17 05:50:47;;;;;;;10.07;4.80;;;19.00;69.70;;;;;;5137788;27;20051;-65
2022/05/17 05:53:13;;;;;;;12.38;5.82;;;19.00;69.60;;;;;;5134442;27;20062;-65
2022/05/17 05:55:40;;;;;;;12.40;5.85;;;19.00;69.60;;;;;;5117511;28;20398;-65
2022/05/17 05:58:06;;;;;;;10.10;5.50;;;19.00;69.70;;;;;;5118620;27;20341;-66
2022/05/17 06:00:33;;;;;;;11.90;5.80;;;19.00;69.80;;;;;;5130060;27;20056;-66
2022/05/17 06:02:59;;;;;;;10.18;5.63;;;19.00;70.00;;;;;;5139055;27;20472;-65
2022/05/17 06:05:26;;;;;;;10.93;5.50;;;19.00;70.00;;;;;;5130585;27;20095;-65
2022/05/17 06:07:52;;;;;;;9.65;5.22;;;19.00;70.00;;;;;;5132227;27;20375;-65
2022/05/17 06:10:19;;;;;;;10.80;5.72;;;19.00;70.00;;;;;;5119378;27;20343;-65
2022/05/17 06:12:45;;;;;;;11.35;5.38;;;19.00;70.70;;;;;;5118477;27;20072;-64
2022/05/17 06:15:11;;;;;;;10.50;5.57;;;19.00;70.20;;;;;;5136592;27;20027;-65
2022/05/17 06:17:37;;;;;;;12.95;5.70;;;19.00;70.30;;;;;;5136234;27;20034;-64
2022/05/17 06:20:04;;;;;;;9.82;5.35;;;19.00;70.30;;;;;;5131996;27;20033;-65
2022/05/17 06:22:30;;;;;;;9.05;5.60;;;19.00;70.40;;;;;;5136202;27;20035;-65
2022/05/17 06:24:55;;;;;;;13.57;5.78;;;19.10;70.40;;;;;;5136752;27;20118;-65
2022/05/17 06:27:21;;;;;;;12.35;5.55;;;19.10;70.30;;;;;;5116475;27;20027;-65
2022/05/17 06:29:46;;;;;;;77.72;11.65;;;19.10;70.20;;;;;;5117124;27;20039;-65
2022/05/17 06:32:15;;;;;;;13.77;5.03;;;19.20;70.00;;;;;;5131801;27;20019;-65
2022/05/17 06:34:41;;;;;;;9.20;4.65;;;19.20;69.70;;;;;;5137102;27;20439;-65
2022/05/17 06:37:08;;;;;;;9.43;5.10;;;19.20;69.60;;;;;;5122836;27;20051;-65
2022/05/17 06:39:35;;;;;;;8.20;3.70;;;19.30;69.60;;;;;;5120535;27;20081;-65
2022/05/17 06:42:01;;;;;;;6.57;2.95;;;19.40;69.20;;;;;;5121715;27;20020;-65
2022/05/17 06:44:28;;;;;;;8.63;3.25;;;19.40;68.80;;;;;;5128274;27;20100;-65
2022/05/17 06:46:54;;;;;;;8.45;2.85;;;19.60;68.40;;;;;;5122440;27;20114;-70
2022/05/17 06:49:21;;;;;;;8.82;3.20;;;19.70;67.90;;;;;;5128958;27;20129;-65
2022/05/17 06:51:47;;;;;;;10.13;2.58;;;19.90;67.20;;;;;;5117712;27;20454;-65
2022/05/17 06:54:15;;;;;;;7.13;2.33;;;20.10;66.40;;;;;;5124478;27;20046;-65
2022/05/17 06:56:40;;;;;;;8.25;2.75;;;20.20;65.70;;;;;;5130190;27;20035;-65
2022/05/17 06:59:07;;;;;;;6.55;2.17;;;20.30;65.20;;;;;;5128116;27;20449;-64
2022/05/17 07:01:33;;;;;;;5.97;2.05;;;20.40;64.80;;;;;;5130990;27;20031;-65
2022/05/17 07:03:59;;;;;;;8.65;2.35;;;20.50;64.40;;;;;;5127368;27;20091;-65
2022/05/17 07:06:26;;;;;;;7.47;2.10;;;20.70;63.90;;;;;;5126014;27;20027;-65
2022/05/17 07:08:51;;;;;;;9.52;2.58;;;20.80;63.30;;;;;;5128335;27;20392;-65
2022/05/17 07:14:01;;;;;;;7.18;2.60;;;21.00;62.40;;;;;;5133114;27;20027;-66
2022/05/17 07:16:27;;;;;;;7.78;2.63;;;21.00;62.40;;;;;;5129078;27;20015;-68
2022/05/17 07:18:53;;;;;;;6.65;2.65;;;20.90;62.60;;;;;;5129329;27;20027;-67
2022/05/17 07:21:18;;;;;;;8.70;2.65;;;20.80;62.70;;;;;;5127147;27;20181;-68
2022/05/17 07:23:44;;;;;;;7.05;2.40;;;20.70;62.90;;;;;;5126790;27;20104;-67
2022/05/17 07:26:13;;;;;;;7.40;2.42;;;20.60;63.20;;;;;;5115330;27;20030;-67
2022/05/17 07:28:44;;;;;;;9.05;3.00;;;20.50;63.50;;;;;;5115355;27;20030;-67
2022/05/17 07:31:09;;;;;;;;;;;20.50;64.00;;;;;;5122584;27;20035;-66
2022/05/17 07:33:37;;;;;;;7.53;3.00;;;20.40;64.10;;;;;;5122660;27;19983;-67
2022/05/17 07:36:04;;;;;;;9.73;3.45;;;20.30;64.40;;;;;;5122555;27;20039;-67
2022/05/17 07:38:29;;;;;;;9.07;3.47;;;20.30;64.60;;;;;;5131903;27;20097;-67
2022/05/17 07:40:55;;;;;;;8.68;3.55;;;20.30;64.70;;;;;;5114493;27;20027;-66
2022/05/17 07:43:21;;;;;;;8.85;3.38;;;20.20;64.70;;;;;;5124388;27;20038;-67
2022/05/17 07:45:50;;;;;;;10.98;3.58;;;20.20;64.70;;;;;;5135112;27;20102;-67
2022/05/17 07:48:22;;;;;;;8.50;3.20;;;20.20;64.80;;;;;;5131558;27;20060;-67
2022/05/17 07:50:49;;;;;;;8.73;3.22;;;20.20;64.80;;;;;;5117002;28;20024;-67
2022/05/17 07:53:16;;;;;;;9.98;3.42;;;20.10;65.00;;;;;;5124327;27;20022;-67
2022/05/17 07:55:43;;;;;;;7.82;3.10;;;20.20;65.30;;;;;;5135117;27;20027;-66
2022/05/17 07:58:10;;;;;;;8.25;3.00;;;20.10;65.40;;;;;;5129338;27;20060;-67
2022/05/17 08:00:37;;;;;;;8.45;3.50;;;20.10;65.60;;;;;;5115585;28;20033;-67
2022/05/17 08:03:04;;;;;;;9.35;3.55;;;20.10;65.80;;;;;;5114903;27;20061;-67
2022/05/17 08:05:30;;;;;;;10.60;3.80;;;20.00;65.80;;;;;;5119277;28;20351;-67
2022/05/17 08:07:57;;;;;;;8.85;4.00;;;20.10;66.00;;;;;;5135620;27;20035;-67
2022/05/17 08:10:23;;;;;;;8.02;3.47;;;20.00;66.00;;;;;;5134325;28;20023;-67
2022/05/17 08:12:49;;;;;;;8.82;3.55;;;20.00;66.00;;;;;;5116692;27;20019;-68
2022/05/17 08:15:15;;;;;;;10.73;3.85;;;20.00;66.00;;;;;;5113663;28;20448;-67
2022/05/17 08:17:41;;;;;;;9.75;3.80;;;20.00;66.10;;;;;;5117724;28;20043;-67
2022/05/17 08:20:09;;;;;;;7.68;3.42;;;19.90;66.10;;;;;;5135016;27;20359;-67
2022/05/17 08:22:40;;;;;;;9.75;3.70;;;19.90;66.20;;;;;;5131382;28;20031;-65
2022/05/17 08:27:54;;;;;;;9.55;3.58;;;20.00;66.40;;;;;;5133385;27;20049;-64
2022/05/17 08:30:21;;;;;;;8.52;3.47;;;20.00;66.30;;;;;;5126302;27;20049;-65
2022/05/17 08:35:39;;;;;;;8.68;3.45;;;20.10;66.30;;;;;;5114476;28;20059;-65
2022/05/17 08:38:05;;;;;;;10.00;3.67;;;20.00;65.80;;;;;;5114701;28;20042;-65
2022/05/17 08:40:36;;;;;;;10.63;3.25;;;20.10;65.50;;;;;;5118450;28;20092;-65
2022/05/17 08:43:15;;;;;;;8.85;3.15;;;20.10;65.30;;;;;;5117831;28;20493;-65
2022/05/17 08:45:53;;;;;;;7.90;2.92;;;20.10;64.80;;;;;;5118745;28;20039;-65
2022/05/17 08:48:19;;;;;;;9.00;2.65;;;20.10;64.70;;;;;;5118917;28;20077;-65
2022/05/17 08:50:48;;;;;;;8.70;2.70;;;20.20;64.60;;;;;;5118498;27;20028;-65
2022/05/17 08:53:18;;;;;;;8.43;2.42;;;20.20;64.50;;;;;;5118400;28;20024;-65
2022/05/17 08:55:49;;;;;;;8.23;2.45;;;20.20;64.50;;;;;;5118161;28;20024;-65
2022/05/17 08:58:28;;;;;;;7.53;2.30;;;20.20;64.20;;;;;;5119283;27;20348;-65
2022/05/17 09:01:02;;;;;;;8.82;2.78;;;20.20;63.90;;;;;;5120969;27;20027;-65
2022/05/17 09:03:56;;;;;;;5.65;2.08;;;20.20;63.90;;;;;;5121103;27;20023;-65
2022/05/17 09:06:47;;;;;;;5.28;1.98;;;20.30;63.90;;;;;;5131759;27;20050;-64
2022/05/17 09:09:23;;;;;;;8.48;2.20;;;20.40;63.70;;;;;;5134235;27;20019;-66
2022/05/17 09:12:03;;;;;;;7.40;2.30;;;20.40;63.30;;;;;;5116759;28;20084;-66
2022/05/17 09:14:34;;;;;;;14.15;3.47;;;20.50;63.00;;;;;;5129268;27;20114;-66
2022/05/17 09:17:15;;;;;;;8.00;3.47;;;20.50;63.40;;;;;;5123557;27;20324;-66
2022/05/17 09:19:42;;;;;;;9.25;3.70;;;20.50;63.60;;;;;;5132069;27;20435;-65
2022/05/17 09:22:09;;;;;;;11.65;4.15;;;20.50;63.90;;;;;;5117396;28;20042;-65
2022/05/17 09:24:49;;;;;;;12.02;3.83;;;20.60;63.90;;;;;;5117603;28;20051;-65
2022/05/17 09:27:26;;;;;;;8.93;3.50;;;20.80;63.80;;;;;;5122214;27;20031;-66
2022/05/17 09:30:23;;;;;;;8.95;3.65;;;20.90;63.60;;;;;;5117789;28;20340;-65
2022/05/17 09:33:06;;;;;;;11.07;3.65;;;21.00;63.30;;;;;;5115736;28;20374;-65
2022/05/17 09:35:40;;;;;;;8.10;3.40;;;21.00;63.10;;;;;;5115721;28;20020;-65
2022/05/17 09:38:07;;;;;;;9.57;3.78;;;21.00;63.10;;;;;;5116332;28;20031;-65
2022/05/17 09:40:37;;;;;;;7.55;3.13;;;21.00;63.00;;;;;;5116473;28;20043;-65
2022/05/17 09:43:09;;;;;;;8.23;3.03;;;21.00;62.80;;;;;;5117037;28;20055;-65
2022/05/17 09:45:45;;;;;;;9.38;2.88;;;21.00;62.60;;;;;;5116349;28;20039;-65
2022/05/17 09:48:12;;;;;;;9.55;3.00;;;21.10;62.40;;;;;;5117003;28;20039;-65
2022/05/17 09:53:52;;;;;;;7.40;2.70;;;21.10;61.90;;;;;;5117559;28;20032;-65
2022/05/17 09:56:26;;;;;;;8.30;2.55;;;21.10;61.70;;;;;;5117022;28;20115;-65
2022/05/17 09:58:52;;;;;;;9.65;3.17;;;21.00;61.60;;;;;;5115488;27;20099;-65
2022/05/17 10:01:22;;;;;;;8.77;3.13;;;20.90;61.60;;;;;;5134647;27;20043;-65
2022/05/17 10:04:14;;;;;;;7.43;2.38;;;21.00;61.60;;;;;;5137445;27;20439;-65
2022/05/17 10:06:43;;;;;;;6.93;2.50;;;20.90;61.50;;;;;;5136161;27;20367;-65
2022/05/17 10:09:30;;;;;;;6.65;2.83;;;21.00;61.70;;;;;;5136663;27;20110;-65
2022/05/17 10:12:04;;;;;;;11.00;2.72;;;21.00;61.70;;;;;;5137377;27;20035;-65
2022/05/17 10:15:02;;;;;;;10.85;3.03;;;21.10;61.60;;;;;;5137272;27;20026;-65
2022/05/17 10:17:30;;;;;;;8.60;3.00;;;21.20;61.40;;;;;;5110780;28;20539;-65
2022/05/17 10:20:04;;;;;;;9.45;3.00;;;21.40;61.00;;;;;;5116365;28;20104;-65
2022/05/17 10:22:57;;;;;;;9.55;4.10;;;21.80;60.40;;;;;;5116787;28;20035;-65
2022/05/17 10:25:25;;;;;;;10.07;3.97;;;22.30;59.60;;;;;;5115265;28;20031;-65
2022/05/17 10:28:08;;;;;;;7.53;3.10;;;22.70;58.90;;;;;;5116518;28;20088;-65
2022/05/17 10:30:55;;;;;;;9.23;3.25;;;23.00;58.20;;;;;;5116459;27;20023;-65
2022/05/17 10:33:33;;;;;;;8.63;2.95;;;23.40;57.50;;;;;;5116487;28;20111;-65
2022/05/17 10:36:03;;;;;;;10.82;3.47;;;23.70;56.80;;;;;;5116205;28;20081;-65
2022/05/17 10:38:41;;;;;;;8.75;3.22;;;23.90;56.50;;;;;;5098526;28;20141;-65
2022/05/17 10:41:11;;;;;;;9.23;3.42;;;24.30;55.90;;;;;;5116259;28;20036;-65
2022/05/17 10:43:41;;;;;;;8.93;3.70;;;24.50;55.40;;;;;;5116241;27;20031;-65
2022/05/17 10:46:17;;;;;;;8.07;3.50;;;24.50;55.40;;;;;;5116835;27;20020;-65
2022/05/17 10:48:58;;;;;;;7.95;3.15;;;24.30;55.20;;;;;;5126886;27;20027;-65
2022/05/17 10:51:33;;;;;;;8.15;3.92;;;24.20;55.40;;;;;;5116302;28;20024;-65
2022/05/17 10:54:24;;;;;;;10.15;3.78;;;24.00;55.40;;;;;;5114732;28;20031;-65
2022/05/17 10:56:53;;;;;;;;;;;23.90;55.40;;;;;;5116561;28;20436;-65
2022/05/17 10:59:36;;;;;;;10.38;3.30;;;23.70;55.90;;;;;;5114900;28;19925;-65
2022/05/17 11:02:39;;;;;;;9.85;3.55;;;23.70;55.70;;;;;;5121307;27;20073;-65
2022/05/17 11:05:23;;;;;;;9.65;3.15;;;23.70;55.50;;;;;;5136253;27;20035;-65
2022/05/17 11:08:07;;;;;;;9.98;3.63;;;23.90;55.40;;;;;;5136101;27;20035;-65
2022/05/17 11:10:54;;;;;;;9.43;3.50;;;24.20;54.70;;;;;;5136605;27;20023;-65
2022/05/17 11:13:30;;;;;;;9.40;3.70;;;24.50;54.20;;;;;;5134984;27;20041;-65
2022/05/17 11:16:08;;;;;;;9.90;3.95;;;24.40;54.00;;;;;;5135123;27;20027;-65
2022/05/17 11:18:42;;;;;;;8.13;2.83;;;24.30;53.90;;;;;;5128687;27;20321;-65
2022/05/17 11:21:15;;;;;;;9.48;3.70;;;24.10;54.10;;;;;;5114509;28;20063;-65
2022/05/17 11:24:09;;;;;;;7.35;3.17;;;24.00;54.40;;;;;;5115520;28;20106;-65
2022/05/17 11:27:07;;;;;;;7.03;2.95;;;23.90;54.40;;;;;;5097103;28;20031;-65
2022/05/17 11:29:51;;;;;;;12.30;4.03;;;23.90;54.30;;;;;;5115055;28;20034;-65
2022/05/17 11:32:34;;;;;;;8.68;3.15;;;24.00;54.30;;;;;;5115096;28;20046;-65
2022/05/17 11:35:02;;;;;;;8.75;3.95;;;24.00;54.10;;;;;;5114364;27;20028;-65
2022/05/17 11:37:46;;;;;;;9.80;3.70;;;24.20;54.10;;;;;;5114646;28;20063;-65
2022/05/17 11:40:47;;;;;;;8.18;3.00;;;24.20;53.80;;;;;;5115421;28;20023;-65
2022/05/17 11:46:03;;;;;;;8.70;2.95;;;24.30;53.80;;;;;;5139364;27;20066;-66
2022/05/17 11:48:51;;;;;;;10.23;3.20;;;24.20;53.70;;;;;;5123433;27;20034;-66
2022/05/17 11:51:17;;;;;;;6.80;2.45;;;24.20;53.50;;;;;;5127556;27;20072;-65
2022/05/17 11:53:49;;;;;;;7.65;3.03;;;24.20;53.50;;;;;;5128290;28;20039;-64
2022/05/17 11:56:24;;;;;;;7.35;2.70;;;24.10;53.20;;;;;;5135466;27;20023;-65
2022/05/17 11:59:12;;;;;;;7.10;2.90;;;24.10;53.20;;;;;;5130689;28;20092;-66
2022/05/17 12:01:38;;;;;;;9.07;2.80;;;24.00;53.00;;;;;;5135499;27;20019;-65
2022/05/17 12:04:15;;;;;;;6.90;2.70;;;24.00;53.00;;;;;;5121206;28;20036;-65
2022/05/17 12:07:04;;;;;;;6.65;2.28;;;23.90;53.00;;;;;;5114210;28;20039;-65
2022/05/17 12:09:36;;;;;;;7.35;2.63;;;23.90;53.10;;;;;;5114944;28;20039;-65
2022/05/17 12:12:27;;;;;;;6.47;2.45;;;23.90;52.90;;;;;;5114559;28;20464;-65
2022/05/17 12:15:16;;;;;;;6.95;3.03;;;24.00;52.80;;;;;;5117952;28;20091;-65
2022/05/17 12:17:44;;;;;;;6.78;2.83;;;24.00;52.80;;;;;;5117257;27;20024;-65
2022/05/17 12:20:16;;;;;;;8.20;3.03;;;24.10;52.70;;;;;;5119142;28;20031;-65
2022/05/17 12:22:50;;;;;;;7.93;2.78;;;24.20;52.40;;;;;;5118828;28;20084;-65
2022/05/17 12:25:29;;;;;;;9.90;3.95;;;24.20;52.30;;;;;;5119055;28;20074;-63
2022/05/17 12:27:55;;;;;;;7.93;3.10;;;24.40;52.30;;;;;;5118714;28;20036;-64
2022/05/17 12:33:24;;;;;;;8.98;3.75;;;24.50;52.40;;;;;;5118686;28;20043;-63
2022/05/17 12:35:51;;;;;;;9.70;3.90;;;24.60;52.50;;;;;;5117924;27;20023;-63
2022/05/17 12:44:25;;;;;;;9.23;3.90;;;24.70;52.60;;;;;;5118572;28;20340;-63
2022/05/17 12:46:54;;;;;;;8.52;3.88;;;24.80;52.60;;;;;;5118355;28;20038;-65
2022/05/17 12:49:30;;;;;;;10.48;4.40;;;24.80;52.60;;;;;;5118911;27;20355;-65
2022/05/17 12:52:15;;;;;;;9.10;3.70;;;24.80;52.80;;;;;;5118807;28;20024;-65
2022/05/17 12:54:41;;;;;;;8.77;3.45;;;24.70;52.70;;;;;;5118138;28;20043;-66
2022/05/17 12:57:21;;;;;;;8.73;4.07;;;24.60;53.00;;;;;;5117227;28;20035;-65
2022/05/17 12:59:47;;;;;;;11.13;3.53;;;24.50;53.00;;;;;;5117181;28;20031;-65
2022/05/17 13:02:21;;;;;;;8.10;3.40;;;24.50;53.00;;;;;;5118095;28;20027;-65
2022/05/17 13:04:46;;;;;;;11.02;3.63;;;24.50;53.20;;;;;;5117571;27;20507;-65
2022/05/17 13:07:16;;;;;;;7.47;3.35;;;24.40;53.20;;;;;;5117725;28;20032;-66
2022/05/17 13:09:57;;;;;;;7.78;3.60;;;24.30;53.30;;;;;;5117042;28;20019;-66
2022/05/17 13:12:24;;;;;;;8.10;3.20;;;24.30;53.30;;;;;;5116802;28;20051;-65
2022/05/17 13:14:51;;;;;;;7.35;3.15;;;24.30;53.40;;;;;;5116945;28;20057;-65
2022/05/17 13:17:21;;;;;;;8.30;2.67;;;24.20;53.30;;;;;;5118212;27;20107;-65
2022/05/17 13:19:48;;;;;;;7.20;2.80;;;24.10;53.30;;;;;;5118389;27;20035;-65
2022/05/17 13:22:18;;;;;;;6.47;2.63;;;24.00;53.20;;;;;;5117558;27;20088;-65